createdAt,value
2022-10-09T00:02:30.795Z,10.46
2022-10-09T00:05:03.197Z,10.34
2022-10-09T00:07:35.212Z,10.21
2022-10-09T00:10:08.048Z,10.25
2022-10-09T00:12:39.791Z,10.24
2022-10-09T00:15:12.538Z,10.23
2022-10-09T00:17:42.812Z,10.23
2022-10-09T00:20:15.666Z,10.41
2022-10-09T00:22:47.720Z,10.41
2022-10-09T00:25:19.784Z,10.35
2022-10-09T00:27:51.568Z,10.32
2022-10-09T00:30:23.706Z,10.30
2022-10-09T00:32:56.963Z,10.24
2022-10-09T00:35:29.950Z,10.34
2022-10-09T00:38:02.403Z,10.43
2022-10-09T00:40:35.554Z,10.22
2022-10-09T00:43:15.486Z,10.24
2022-10-09T00:45:56.115Z,10.31
2022-10-09T00:48:29.700Z,10.27
2022-10-09T00:51:04.279Z,10.14
2022-10-09T00:53:37.605Z,10.18
2022-10-09T00:56:11.775Z,10.17
2022-10-09T00:58:44.524Z,10.27
2022-10-09T01:01:16.744Z,10.30
2022-10-09T01:03:48.521Z,10.34
2022-10-09T01:06:24.608Z,10.29
2022-10-09T01:09:04.663Z,10.29
2022-10-09T01:11:45.605Z,10.24
2022-10-09T01:14:27.257Z,10.30
2022-10-09T01:17:09.052Z,10.25
2022-10-09T01:19:59.445Z,10.21
2022-10-09T01:22:47.519Z,10.29
2022-10-09T01:25:27.207Z,10.27
2022-10-09T01:27:59.859Z,10.17
2022-10-09T01:30:33.529Z,10.13
2022-10-09T01:33:05.965Z,10.15
2022-10-09T01:35:38.329Z,10.05
2022-10-09T01:38:10.925Z,9.98
2022-10-09T01:40:42.906Z,9.95
2022-10-09T01:43:14.747Z,9.87
2022-10-09T01:45:48.598Z,9.90
2022-10-09T01:48:24.898Z,9.71
2022-10-09T01:51:02.803Z,9.50
2022-10-09T01:53:37.626Z,9.58
2022-10-09T01:56:15.523Z,9.61
2022-10-09T01:58:53.117Z,9.69
2022-10-09T02:01:28.800Z,9.64
2022-10-09T02:04:04.666Z,9.61
2022-10-09T02:06:40.114Z,9.70
2022-10-09T02:09:16.548Z,9.58
2022-10-09T02:11:54.082Z,9.60
2022-10-09T02:14:27.477Z,9.54
2022-10-09T02:17:03.507Z,9.45
2022-10-09T02:19:42.566Z,9.34
2022-10-09T02:22:17.353Z,9.24
2022-10-09T02:24:49.381Z,9.35
2022-10-09T02:27:22.560Z,9.48
2022-10-09T02:29:54.990Z,9.48
2022-10-09T02:32:26.803Z,9.40
2022-10-09T02:34:58.554Z,9.31
2022-10-09T02:37:30.933Z,9.29
2022-10-09T02:40:05.835Z,9.34
2022-10-09T02:42:40.421Z,9.35
2022-10-09T02:45:13.183Z,9.33
2022-10-09T02:47:43.271Z,9.35
2022-10-09T02:50:15.007Z,9.34
2022-10-09T02:52:47.105Z,9.24
2022-10-09T02:55:19.326Z,9.20
2022-10-09T02:57:51.016Z,9.09
2022-10-09T03:00:22.932Z,9.08
2022-10-09T03:02:54.730Z,9.12
2022-10-09T03:05:26.956Z,9.04
2022-10-09T03:07:58.869Z,9.06
2022-10-09T03:10:31.029Z,9.03
2022-10-09T03:13:02.703Z,8.95
2022-10-09T03:15:36.458Z,8.84
2022-10-09T03:18:09.641Z,8.99
2022-10-09T03:20:42.337Z,8.85
2022-10-09T03:23:14.612Z,8.95
2022-10-09T03:25:46.287Z,8.89
2022-10-09T03:28:18.005Z,8.87
2022-10-09T03:30:49.718Z,8.89
2022-10-09T03:33:22.526Z,8.90
2022-10-09T03:35:52.730Z,8.98
2022-10-09T03:38:24.575Z,9.00
2022-10-09T03:40:59.021Z,8.99
2022-10-09T03:43:31.001Z,9.00
2022-10-09T03:46:05.299Z,8.97
2022-10-09T03:48:37.082Z,8.96
2022-10-09T03:51:09.012Z,8.85
2022-10-09T03:53:40.693Z,8.94
2022-10-09T03:56:12.466Z,8.82
2022-10-09T03:58:44.121Z,8.88
2022-10-09T04:01:15.966Z,8.90
2022-10-09T04:03:47.677Z,8.87
2022-10-09T04:06:19.729Z,8.98
2022-10-09T04:08:51.301Z,9.00
2022-10-09T04:11:23.033Z,8.97
2022-10-09T04:13:54.758Z,8.82
2022-10-09T04:16:26.580Z,8.78
2022-10-09T04:18:58.613Z,8.62
2022-10-09T04:21:30.263Z,8.78
2022-10-09T04:24:03.604Z,8.81
2022-10-09T04:26:35.359Z,8.64
2022-10-09T04:29:06.992Z,8.75
2022-10-09T04:31:38.766Z,8.80
2022-10-09T04:34:10.460Z,8.72
2022-10-09T04:36:42.252Z,8.76
2022-10-09T04:39:14.129Z,8.68
2022-10-09T04:41:46.645Z,8.47
2022-10-09T04:44:20.336Z,8.46
2022-10-09T04:46:54.374Z,8.39
2022-10-09T04:49:26.171Z,8.50
2022-10-09T04:51:57.833Z,8.55
2022-10-09T04:54:29.685Z,8.62
2022-10-09T04:57:01.464Z,8.50
2022-10-09T04:59:33.517Z,8.46
2022-10-09T05:02:04.658Z,8.41
2022-10-09T05:04:36.397Z,8.47
2022-10-09T05:07:08.226Z,8.48
2022-10-09T05:09:39.829Z,8.44
2022-10-09T05:12:11.603Z,8.51
2022-10-09T05:14:43.310Z,8.36
2022-10-09T05:17:15.678Z,8.36
2022-10-09T05:19:48.194Z,8.46
2022-10-09T05:22:19.926Z,8.33
2022-10-09T05:24:51.674Z,8.23
2022-10-09T05:27:23.384Z,8.23
2022-10-09T05:29:55.084Z,8.27
2022-10-09T05:32:26.884Z,8.30
2022-10-09T05:35:01.551Z,8.17
2022-10-09T05:37:33.441Z,8.13
2022-10-09T05:40:06.367Z,8.05
2022-10-09T05:42:43.114Z,8.02
2022-10-09T05:45:15.888Z,7.93
2022-10-09T05:47:47.847Z,7.92
2022-10-09T05:50:20.122Z,7.95
2022-10-09T05:52:51.966Z,7.94
2022-10-09T05:55:23.792Z,8.02
2022-10-09T05:57:56.426Z,8.12
2022-10-09T06:00:28.161Z,8.08
2022-10-09T06:03:00.479Z,8.10
2022-10-09T06:05:32.104Z,8.23
2022-10-09T06:08:03.931Z,8.25
2022-10-09T06:10:35.732Z,8.35
2022-10-09T06:13:07.474Z,8.46
2022-10-09T06:15:39.319Z,8.33
2022-10-09T06:18:11.157Z,8.50
2022-10-09T06:20:42.956Z,8.54
2022-10-09T06:23:14.757Z,8.49
2022-10-09T06:25:55.668Z,8.56
2022-10-09T06:28:27.570Z,8.62
2022-10-09T06:31:04.459Z,8.58
2022-10-09T06:33:37.981Z,8.56
2022-10-09T06:36:12.097Z,8.64
2022-10-09T06:38:44.867Z,8.69
2022-10-09T06:41:18.607Z,8.75
2022-10-09T06:43:53.673Z,8.86
2022-10-09T06:46:27.549Z,8.80
2022-10-09T06:49:01.675Z,8.78
2022-10-09T06:51:35.509Z,8.91
2022-10-09T06:54:11.717Z,8.92
2022-10-09T06:56:44.574Z,9.11
2022-10-09T06:59:16.393Z,9.07
2022-10-09T07:01:48.352Z,9.17
2022-10-09T07:04:21.656Z,9.19
2022-10-09T07:06:53.758Z,9.16
2022-10-09T07:09:25.625Z,9.25
2022-10-09T07:11:57.499Z,9.27
2022-10-09T07:14:30.387Z,9.25
2022-10-09T07:17:03.659Z,9.28
2022-10-09T07:19:35.966Z,9.30
2022-10-09T07:22:11.809Z,9.30
2022-10-09T07:24:44.042Z,9.32
2022-10-09T07:27:15.700Z,9.37
2022-10-09T07:29:47.481Z,9.44
2022-10-09T07:32:19.386Z,9.54
2022-10-09T07:34:51.175Z,9.73
2022-10-09T07:37:22.969Z,9.69
2022-10-09T07:39:54.632Z,9.77
2022-10-09T07:42:26.566Z,9.76
2022-10-09T07:44:58.543Z,9.83
2022-10-09T07:47:30.439Z,9.94
2022-10-09T07:50:02.180Z,10.01
2022-10-09T07:52:34.273Z,10.07
2022-10-09T07:55:06.703Z,10.08
2022-10-09T07:57:38.472Z,10.10
2022-10-09T08:00:12.585Z,10.21
2022-10-09T08:02:44.454Z,10.28
2022-10-09T08:05:16.738Z,10.31
2022-10-09T08:07:48.486Z,10.40
2022-10-09T08:10:20.390Z,10.39
2022-10-09T08:12:52.331Z,10.49
2022-10-09T08:15:24.292Z,10.59
2022-10-09T08:17:58.458Z,10.51
2022-10-09T08:20:30.119Z,10.58
2022-10-09T08:23:01.917Z,10.64
2022-10-09T08:25:38.444Z,10.71
2022-10-09T08:28:10.130Z,10.71
2022-10-09T08:30:41.937Z,10.73
2022-10-09T08:33:13.761Z,10.84
2022-10-09T08:35:45.436Z,10.93
2022-10-09T08:38:37.389Z,10.92
2022-10-09T08:41:15.252Z,11.03
2022-10-09T08:43:49.809Z,11.00
2022-10-09T08:46:27.221Z,11.03
2022-10-09T08:48:59.821Z,11.11
2022-10-09T08:51:36.118Z,11.17
2022-10-09T08:54:19.929Z,11.21
2022-10-09T08:56:53.606Z,11.29
2022-10-09T08:59:25.330Z,11.37
2022-10-09T09:02:06.432Z,11.47
2022-10-09T09:04:50.081Z,11.50
2022-10-09T09:07:32.670Z,11.63
2022-10-09T09:10:13.130Z,11.74
2022-10-09T09:12:51.657Z,11.80
2022-10-09T09:15:45.052Z,11.80
2022-10-09T09:18:23.032Z,11.90
2022-10-09T09:20:59.855Z,11.98
2022-10-09T09:23:38.408Z,12.06
2022-10-09T09:26:17.147Z,12.19
2022-10-09T09:28:54.342Z,12.41
2022-10-09T09:31:31.592Z,12.60
2022-10-09T09:34:12.529Z,12.67
2022-10-09T09:36:50.450Z,12.74
2022-10-09T09:40:08.190Z,13.00
2022-10-09T09:42:20.491Z,13.04
2022-10-09T09:45:00.439Z,13.07
2022-10-09T09:47:37.246Z,13.07
2022-10-09T09:50:28.511Z,13.29
2022-10-09T09:53:02.086Z,13.78
2022-10-09T09:55:36.030Z,13.94
2022-10-09T09:58:09.585Z,13.58
2022-10-09T10:00:41.651Z,13.53
2022-10-09T10:03:17.960Z,13.39
2022-10-09T10:05:50.006Z,13.67
2022-10-09T10:08:28.463Z,14.04
2022-10-09T10:11:02.791Z,14.31
2022-10-09T10:13:39.170Z,14.57
2022-10-09T10:16:20.694Z,14.70
2022-10-09T10:18:56.137Z,14.50
2022-10-09T10:21:28.927Z,14.07
2022-10-09T10:24:03.728Z,13.93
2022-10-09T10:26:42.798Z,14.31
2022-10-09T10:29:19.816Z,14.74
2022-10-09T10:31:55.605Z,14.92
2022-10-09T10:34:32.015Z,14.74
2022-10-09T10:37:11.166Z,14.39
2022-10-09T10:39:48.841Z,14.17
2022-10-09T10:42:25.801Z,14.12
2022-10-09T10:45:04.379Z,14.30
2022-10-09T10:47:42.354Z,14.84
2022-10-09T10:50:17.842Z,14.77
2022-10-09T10:53:02.882Z,14.62
2022-10-09T10:55:46.631Z,14.41
2022-10-09T10:58:29.417Z,14.81
2022-10-09T11:01:15.674Z,15.28
2022-10-09T11:04:05.268Z,15.28
2022-10-09T11:06:45.244Z,14.87
2022-10-09T11:09:26.226Z,14.69
2022-10-09T11:12:15.602Z,15.07
2022-10-09T11:14:58.919Z,15.48
2022-10-09T11:17:41.102Z,15.30
2022-10-09T11:20:36.768Z,14.94
2022-10-09T11:23:21.139Z,14.67
2022-10-09T11:26:00.089Z,14.61
2022-10-09T11:28:38.649Z,14.53
2022-10-09T11:31:16.742Z,14.44
2022-10-09T11:33:51.240Z,14.41
2022-10-09T11:36:28.241Z,14.47
2022-10-09T11:39:03.298Z,14.32
2022-10-09T11:41:38.232Z,14.22
2022-10-09T11:44:27.492Z,14.17
2022-10-09T11:47:09.408Z,14.18
2022-10-09T11:49:56.870Z,14.18
2022-10-09T11:52:36.505Z,14.15
2022-10-09T11:55:19.610Z,14.03
2022-10-09T11:57:51.689Z,14.16
2022-10-09T12:00:33.493Z,14.10
2022-10-09T12:03:08.317Z,14.09
2022-10-09T12:05:44.654Z,14.05
2022-10-09T12:08:19.735Z,14.06
2022-10-09T12:10:56.698Z,14.08
2022-10-09T12:13:45.053Z,14.28
2022-10-09T12:16:36.836Z,14.27
2022-10-09T12:19:16.645Z,14.17
2022-10-09T12:21:56.280Z,14.16
2022-10-09T12:24:32.625Z,14.10
2022-10-09T12:27:06.728Z,14.04
2022-10-09T12:29:45.617Z,14.05
2022-10-09T12:32:25.668Z,14.06
2022-10-09T12:34:58.878Z,14.06
2022-10-09T12:37:36.815Z,14.01
2022-10-09T12:40:22.073Z,14.00
2022-10-09T12:42:55.761Z,14.39
2022-10-09T12:45:30.619Z,14.60
2022-10-09T12:48:12.786Z,14.58
2022-10-09T12:50:44.601Z,14.95
2022-10-09T12:53:18.351Z,15.27
2022-10-09T12:55:52.509Z,15.63
2022-10-09T12:58:27.462Z,15.93
2022-10-09T13:01:01.764Z,16.09
2022-10-09T13:03:39.193Z,16.06
2022-10-09T13:06:19.199Z,15.89
2022-10-09T13:08:57.574Z,15.88
2022-10-09T13:11:38.018Z,15.89
2022-10-09T13:14:24.184Z,16.12
2022-10-09T13:16:56.314Z,16.21
2022-10-09T13:19:31.210Z,16.28
2022-10-09T13:22:21.567Z,16.31
2022-10-09T13:24:56.415Z,16.44
2022-10-09T13:27:32.213Z,16.38
2022-10-09T13:30:11.475Z,16.45
2022-10-09T13:32:43.312Z,16.58
2022-10-09T13:35:15.877Z,16.50
2022-10-09T13:37:48.002Z,16.40
2022-10-09T13:40:22.358Z,16.19
2022-10-09T13:42:58.893Z,16.36
2022-10-09T13:45:30.634Z,16.47
2022-10-09T13:48:02.496Z,16.65
2022-10-09T13:50:34.639Z,16.46
2022-10-09T13:53:06.548Z,16.43
2022-10-09T13:55:39.302Z,16.47
2022-10-09T13:58:11.147Z,16.48
2022-10-09T14:00:45.230Z,16.68
2022-10-09T14:03:17.409Z,16.47
2022-10-09T14:05:49.419Z,16.40
2022-10-09T14:08:21.857Z,16.27
2022-10-09T14:10:54.398Z,16.28
2022-10-09T14:13:26.292Z,16.27
2022-10-09T14:15:58.715Z,16.25
2022-10-09T14:18:30.997Z,16.27
2022-10-09T14:21:12.488Z,16.32
2022-10-09T14:23:46.847Z,16.27
2022-10-09T14:26:18.685Z,16.31
2022-10-09T14:28:50.979Z,16.32
2022-10-09T14:31:23.736Z,16.33
2022-10-09T14:33:59.947Z,16.34
2022-10-09T14:36:32.811Z,16.44
2022-10-09T14:39:05.421Z,16.36
2022-10-09T14:41:38.064Z,16.10
2022-10-09T14:44:11.067Z,16.14
2022-10-09T14:46:42.870Z,16.12
2022-10-09T14:49:15.024Z,16.01
2022-10-09T14:51:50.145Z,15.91
2022-10-09T14:54:22.308Z,15.95
2022-10-09T14:56:54.209Z,15.91
2022-10-09T14:59:26.484Z,15.68
2022-10-09T15:01:58.290Z,15.64
2022-10-09T15:04:30.713Z,15.62
2022-10-09T15:07:02.633Z,15.65
2022-10-09T15:09:34.920Z,15.58
2022-10-09T15:12:08.252Z,15.54
2022-10-09T15:14:39.922Z,15.50
2022-10-09T15:17:11.890Z,15.58
2022-10-09T15:19:43.668Z,15.59
2022-10-09T15:22:15.376Z,15.54
2022-10-09T15:24:47.669Z,15.34
2022-10-09T15:27:20.042Z,15.43
2022-10-09T15:29:52.051Z,15.31
2022-10-09T15:32:24.890Z,15.33
2022-10-09T15:34:59.715Z,15.36
2022-10-09T15:37:31.424Z,15.27
2022-10-09T15:40:03.276Z,15.09
2022-10-09T15:42:36.926Z,14.88
2022-10-09T15:45:12.116Z,14.74
2022-10-09T15:47:51.500Z,14.71
2022-10-09T15:50:23.450Z,14.65
2022-10-09T15:52:57.194Z,14.62
2022-10-09T15:55:29.077Z,14.53
2022-10-09T15:58:02.583Z,14.51
2022-10-09T16:00:39.729Z,14.43
2022-10-09T16:03:11.895Z,14.26
2022-10-09T16:05:47.589Z,14.09
2022-10-09T16:08:20.104Z,14.11
2022-10-09T16:10:53.101Z,14.06
2022-10-09T16:13:26.367Z,13.87
2022-10-09T16:15:58.673Z,13.85
2022-10-09T16:18:30.686Z,13.77
2022-10-09T16:21:08.375Z,13.77
2022-10-09T16:23:40.461Z,13.67
2022-10-09T16:26:15.021Z,13.53
2022-10-09T16:28:48.158Z,13.48
2022-10-09T16:31:25.184Z,13.40
2022-10-09T16:33:57.035Z,13.38
2022-10-09T16:36:29.648Z,13.29
2022-10-09T16:39:00.166Z,13.28
2022-10-09T16:41:32.815Z,13.14
2022-10-09T16:44:06.391Z,13.04
2022-10-09T16:46:38.614Z,13.08
2022-10-09T16:49:20.098Z,13.01
2022-10-09T16:51:54.659Z,12.98
2022-10-09T16:54:26.621Z,12.95
2022-10-09T16:56:59.016Z,12.97
2022-10-09T16:59:31.104Z,12.90
2022-10-09T17:02:03.723Z,12.93
2022-10-09T17:04:38.153Z,12.90
2022-10-09T17:07:11.543Z,12.80
2022-10-09T17:09:43.357Z,12.70
2022-10-09T17:12:15.185Z,12.58
2022-10-09T17:14:47.592Z,12.70
2022-10-09T17:17:19.245Z,12.60
2022-10-09T17:22:27.607Z,12.52
2022-10-09T17:24:59.682Z,12.53
2022-10-09T17:27:31.396Z,12.42
2022-10-09T17:30:03.050Z,12.42
2022-10-09T17:32:34.990Z,12.48
2022-10-09T17:35:07.869Z,12.42
2022-10-09T17:37:39.708Z,12.37
2022-10-09T17:40:13.221Z,12.33
2022-10-09T17:42:44.881Z,12.26
2022-10-09T17:45:16.712Z,12.28
2022-10-09T17:47:49.138Z,12.23
2022-10-09T17:50:20.965Z,12.15
2022-10-09T17:52:52.882Z,12.01
2022-10-09T17:55:28.087Z,11.92
2022-10-09T17:58:00.433Z,11.94
2022-10-09T18:00:32.207Z,11.98
2022-10-09T18:03:03.992Z,11.95
2022-10-09T18:05:41.408Z,11.96
2022-10-09T18:08:15.313Z,11.98
2022-10-09T18:10:48.233Z,12.02
2022-10-09T18:13:20.517Z,12.03
2022-10-09T18:15:52.479Z,12.03
2022-10-09T18:18:24.453Z,12.04
2022-10-09T18:20:56.300Z,12.00
2022-10-09T18:23:28.053Z,11.85
2022-10-09T18:26:00.016Z,11.77
2022-10-09T18:28:31.715Z,11.69
2022-10-09T18:31:07.227Z,11.68
2022-10-09T18:33:39.638Z,11.62
2022-10-09T18:36:19.336Z,11.59
2022-10-09T18:38:52.930Z,11.55
2022-10-09T18:41:25.637Z,11.59
2022-10-09T18:43:56.175Z,11.62
2022-10-09T18:46:32.764Z,11.67
2022-10-09T18:49:09.371Z,11.62
2022-10-09T18:51:43.817Z,11.70
2022-10-09T18:54:18.260Z,11.70
2022-10-09T18:56:50.679Z,11.63
2022-10-09T18:59:24.821Z,11.59
2022-10-09T19:01:56.964Z,11.63
2022-10-09T19:04:29.140Z,11.49
2022-10-09T19:07:01.277Z,11.34
2022-10-09T19:09:33.394Z,11.40
2022-10-09T19:12:05.323Z,11.37
2022-10-09T19:14:38.697Z,11.28
2022-10-09T19:17:11.210Z,11.24
2022-10-09T19:19:43.877Z,11.28
2022-10-09T19:22:20.026Z,11.27
2022-10-09T19:24:55.163Z,11.31
2022-10-09T19:27:27.445Z,11.16
2022-10-09T19:29:58.324Z,11.19
2022-10-09T19:32:30.951Z,11.33
2022-10-09T19:35:02.942Z,11.32
2022-10-09T19:37:34.883Z,11.31
2022-10-09T19:40:08.776Z,11.32
2022-10-09T19:42:40.850Z,11.26
2022-10-09T19:45:14.125Z,11.25
2022-10-09T19:47:46.080Z,11.21
2022-10-09T19:50:18.487Z,11.20
2022-10-09T19:52:52.850Z,12.14
2022-10-09T19:55:30.201Z,14.15
2022-10-09T19:58:03.552Z,14.91
2022-10-09T20:00:37.873Z,15.04
2022-10-09T20:03:11.224Z,15.05
2022-10-09T20:05:43.452Z,15.25
2022-10-09T20:08:15.323Z,15.40
2022-10-09T20:10:47.664Z,15.60
2022-10-09T20:13:20.396Z,15.56
2022-10-09T20:15:52.476Z,15.68
2022-10-09T20:18:24.413Z,15.60
2022-10-09T20:20:56.801Z,15.43
2022-10-09T20:23:30.043Z,15.71
2022-10-09T20:26:07.026Z,15.58
2022-10-09T20:28:39.815Z,15.26
2022-10-09T20:31:14.788Z,15.49
2022-10-09T20:33:48.443Z,15.82
2022-10-09T20:36:24.658Z,15.87
2022-10-09T20:38:58.876Z,15.83
2022-10-09T20:41:32.364Z,16.03
2022-10-09T20:44:06.756Z,15.93
2022-10-09T20:46:39.885Z,15.44
2022-10-09T20:49:15.624Z,15.73
2022-10-09T20:51:47.596Z,15.62
2022-10-09T20:54:22.060Z,15.39
2022-10-09T20:56:54.539Z,15.60
2022-10-09T20:59:26.576Z,15.53
2022-10-09T21:01:58.462Z,15.41
2022-10-09T21:04:31.526Z,15.64
2022-10-09T21:07:03.268Z,14.34
2022-10-09T21:09:35.050Z,13.16
2022-10-09T21:12:07.799Z,12.51
2022-10-09T21:14:38.575Z,12.31
2022-10-09T21:17:10.633Z,12.03
2022-10-09T21:19:42.344Z,11.78
2022-10-09T21:22:14.098Z,11.68
2022-10-09T21:24:46.110Z,11.47
2022-10-09T21:27:17.807Z,11.30
2022-10-09T21:29:49.810Z,11.18
2022-10-09T21:32:21.545Z,11.11
2022-10-09T21:34:53.206Z,11.13
2022-10-09T21:37:25.037Z,11.09
2022-10-09T21:39:56.710Z,11.07
2022-10-09T21:42:28.607Z,11.04
2022-10-09T21:45:00.315Z,10.96
2022-10-09T21:47:32.182Z,10.80
2022-10-09T21:50:07.005Z,10.68
2022-10-09T21:52:38.698Z,10.64
2022-10-09T21:55:11.123Z,10.64
2022-10-09T21:57:45.149Z,10.59
2022-10-09T22:00:17.295Z,10.56
2022-10-09T22:02:49.260Z,10.54
2022-10-09T22:05:21.244Z,10.48
2022-10-09T22:07:53.043Z,10.49
2022-10-09T22:10:25.132Z,10.51
2022-10-09T22:12:57.040Z,10.49
2022-10-09T22:15:28.729Z,10.45
2022-10-09T22:18:00.612Z,10.47
2022-10-09T22:20:32.501Z,10.45
2022-10-09T22:23:04.278Z,10.39
2022-10-09T22:25:35.918Z,10.34
2022-10-09T22:28:08.189Z,10.14
2022-10-09T22:30:39.990Z,10.11
2022-10-09T22:33:11.687Z,10.11
2022-10-09T22:35:45.681Z,10.11
2022-10-09T22:38:17.489Z,10.18
2022-10-09T22:40:49.185Z,10.20
2022-10-09T22:43:20.919Z,10.14
2022-10-09T22:45:52.663Z,10.08
2022-10-09T22:48:24.462Z,9.91
2022-10-09T22:50:56.484Z,9.90
2022-10-09T22:53:28.362Z,10.00
2022-10-09T22:56:00.075Z,10.11
2022-10-09T22:58:31.748Z,10.05
2022-10-09T23:01:08.431Z,9.96
2022-10-09T23:03:40.234Z,10.01
2022-10-09T23:06:14.477Z,10.03
2022-10-09T23:08:48.371Z,10.11
2022-10-09T23:11:21.454Z,10.12
2022-10-09T23:13:57.608Z,10.16
2022-10-09T23:16:30.633Z,10.02
2022-10-09T23:19:06.652Z,9.96
2022-10-09T23:21:40.540Z,9.79
2022-10-09T23:24:17.790Z,9.82
2022-10-09T23:26:52.874Z,9.79
2022-10-09T23:29:24.517Z,9.81
2022-10-09T23:31:56.165Z,9.73
2022-10-09T23:34:27.949Z,9.68
2022-10-09T23:36:59.612Z,9.68
2022-10-09T23:39:31.406Z,9.76
2022-10-09T23:42:03.158Z,9.73
2022-10-09T23:44:34.925Z,9.79
2022-10-09T23:47:06.740Z,9.72
2022-10-09T23:49:39.315Z,9.69
2022-10-09T23:52:11.155Z,9.64
2022-10-09T23:54:43.053Z,9.66
2022-10-09T23:57:14.882Z,9.58
2022-10-09T23:59:46.532Z,9.59
